NEODyS-2

Near Earth Objects - Dynamic Site
NEODyS ∴ Observatories ∴ Site 691 ∴ Obs & residuals
Contact »
691  ▹ 
OBSERVATIONS AND RESIDUALS

691-Steward Observatory, Kitt Peak-Spacewatch

Detections | Residuals | Detections & Residuals

[1-200] [201-400] [401-600] [601-800] [801-1000] [1001-1200] [1201-1400] [1401-1600] [1601-1800] [1801-2000] [2001-2200] [2201-2400] [2401-2600] [2601-2800] [2801-3000] [3001-3200] [3201-3400] [3401-3600] [3601-3800] [3801-4000] [4001-4200] [4201-4400] [4401-4600] [4601-4800] [4801-5000] [5001-5200] [5201-5400] [5401-5600] [5601-5800] [5801-6000] [6001-6200] [6201-6400] [6401-6600] [6601-6800] [6801-7000] [7001-7200] [7201-7400] [7401-7600] [7601-7800] [7801-8000] [8001-8200] [8201-8400] [8401-8600] [8601-8800] [8801-9000] [9001-9200] [9201-9400] [9401-9600] [9601-9800] [9801-10000] [10001-10200] [10201-10400] [10401-10600] [10601-10800] [10801-11000] [11001-11200] [11201-11400] [11401-11600] [11601-11800] [11801-12000] [12001-12200] [12201-12400] [12401-12600] [12601-12800] [12801-13000] [13001-13200] [13201-13400] [13401-13600] [13601-13800] [13801-14000] [14001-14200] [14201-14400] [14401-14600] [14601-14800] [14801-15000] [15001-15200] [15201-15400] [15401-15600] [15601-15800] [15801-16000] [16001-16200] [16201-16400] [16401-16600] [16601-16800] [16801-17000] [17001-17200] [17201-17400] [17401-17600] [17601-17800] [17801-18000] [18001-18200] [18201-18400] [18401-18600] [18601-18800] [18801-19000] [19001-19200] [19201-19400] [19401-19600] [19601-19800] [19801-20000] [20001-20200] [20201-20400] [20401-20600] [20601-20800] [20801-21000] [21001-21200] [21201-21400] [21401-21600] [21601-21800] [21801-22000] [22001-22200] [22201-22400] [22401-22600] [22601-22800] [22801-23000] [23001-23200] [23201-23400] [23401-23600] [23601-23800] [23801-24000] [24001-24200] [24201-24400] [24401-24600] [24601-24800] [24801-25000] [25001-25200] [25201-25400] [25401-25600] [25601-25800] [25801-26000] [26001-26200] [26201-26400] [26401-26600] [26601-26800] [26801-27000] [27001-27200] [27201-27400] [27401-27600] [27601-27800] [27801-28000] [28001-28200] [28201-28400] [28401-28600] [28601-28800] [28801-29000] [29001-29200] [29201-29400] [29401-29600] [29601-29800] [29801-30000] [30001-30200] [30201-30400] [30401-30600] [30601-30800] [30801-31000] [31001-31200] [31201-31400] [31401-31600] [31601-31800] [31801-32000] [32001-32200] [32201-32400] [32401-32600] [32601-32800] [32801-33000] [33001-33200] [33201-33400] [33401-33600] [33601-33800] [33801-34000] [34001-34200] [34201-34400] [34401-34600] [34601-34800] [34801-35000] [35001-35200] [35201-35400] [35401-35600] [35601-35800] [35801-36000] [36001-36200] [36201-36400] [36401-36600] [36601-36800] [36801-37000] [37001-37200] [37201-37400] [37401-37600] [37601-37800] [37801-38000] [38001-38200] [38201-38400] [38401-38600] [38601-38800] [38801-39000] [39001-39200] [39201-39400] [39401-39600] [39601-39800] [39801-40000] [40001-40200] [40201-40400] [40401-40600] [40601-40800] [40801-41000] [41001-41200] [41201-41400] [41401-41600] [41601-41800] [41801-42000] [42001-42200] [42201-42400] [42401-42600] [42601-42800] [42801-43000] [43001-43200] [43201-43400] [43401-43600] [43601-43800] [43801-44000] [44001-44200] [44201-44400] [44401-44600] [44601-44800] [44801-45000] [45001-45200] [45201-45400] [45401-45600] [45601-45800] [45801-46000] [46001-46200] [46201-46400] [46401-46600] [46601-46800] [46801-47000] [47001-47200] [47201-47400] [47401-47600] [47601-47800] [47801-48000] [48001-48200] [48201-48400] [48401-48600] [48601-48800] [48801-49000] [49001-49200] [49201-49400] [49401-49600] [49601-49800] [49801-50000] [50001-50200] [50201-50388]

Designation T Tech N Date Right Ascension Declination Apparent Magnitude Star Catalog Site code χ Used A Used M
yr-mo-day precision hr:min:sec precision rms F bias residual deg min sec precision rms F bias residual mag/col rms residual
2017SV20 O C H 2017-10-16.47571 1.000E-05 04:40:02.410 1.500E-01 0.500 F -0.071 0.459 -21° 09' 02.40" 1.000E-01 0.500 F 0.005 0.428 o 691 1.26 Yes No
2017SR12 O C K 2017-10-16.47862 1.000E-05 04:57:24.850 1.500E-01 0.500 F -0.276 0.441 +22° 36' 27.40" 1.000E-01 0.500 F 0.117 0.327 20.3 R 0.70 -0.65 o 691 1.20 Yes Yes
2017SV20 O C H 2017-10-16.48668 1.000E-05 04:40:01.810 1.500E-01 0.500 F -0.071 0.488 -21° 09' 11.70" 1.000E-01 0.500 F 0.005 -0.176 o 691 1.04 Yes No
2017SR12 O C K 2017-10-16.48961 1.000E-05 04:57:26.330 1.500E-01 0.500 F -0.276 -0.059 +22° 36' 47.20" 1.000E-01 0.500 F 0.117 0.167 20.3 R 0.70 -0.65 o 691 0.38 Yes Yes
1998YN1 O C 2017-10-16.49784 1.000E-05 02:27:24.640 1.500E-01 0.500 F -0.041 -0.375 +08° 37' 27.90" 1.000E-01 0.500 F 0.343 -0.407 20.6 V 0.70 0.28 o 691 1.11 Yes Yes
2017SF14 O C 2017-10-16.49996 1.000E-05 03:51:40.910 1.500E-01 0.500 F -0.131 0.020 -04° 39' 04.60" 1.000E-01 0.500 F 0.218 -0.144 20.3 V 0.70 -0.34 o 691 0.29 Yes Yes
1998YN1 O C 2017-10-16.50333 1.000E-05 02:27:24.150 1.500E-01 0.500 F -0.041 -0.375 +08° 37' 26.00" 1.000E-01 0.500 F 0.343 -0.303 20.6 V 0.70 0.28 o 691 0.96 Yes Yes
2017SF14 O C 2017-10-16.50538 1.000E-05 03:51:40.240 1.500E-01 0.500 F -0.131 -0.488 -04° 38' 46.80" 1.000E-01 0.500 F 0.218 0.282 20.3 V 0.70 -0.34 o 691 1.14 Yes Yes
1998YN1 O C 2017-10-16.50871 1.000E-05 02:27:23.620 1.500E-01 0.500 F -0.041 -1.118 +08° 37' 24.50" 1.000E-01 0.500 F 0.343 0.162 20.7 V 0.70 0.38 o 691 2.26 Yes Yes
2017SF14 O C 2017-10-16.51071 1.000E-05 03:51:39.640 1.500E-01 0.500 F -0.131 -0.169 -04° 38' 30.20" 1.000E-01 0.500 F 0.218 -0.208 20.4 V 0.70 -0.24 o 691 0.54 Yes Yes
2017NU6 O C 2017-10-17.12321 1.000E-05 19:52:59.480 1.500E-01 0.500 F -0.005 -0.293 -20° 10' 27.40" 1.000E-01 0.500 F 0.049 0.152 20.9 V 0.70 0.23 o 691 0.67 Yes Yes
2017NU6 O C 2017-10-17.13432 1.000E-05 19:53:01.010 1.500E-01 0.500 F -0.005 -0.679 -20° 10' 37.40" 1.000E-01 0.500 F 0.049 -0.570 20.4 V 0.70 -0.27 o 691 1.79 Yes Yes
2017NU6 O C 2017-10-17.14538 1.000E-05 19:53:02.550 1.500E-01 0.500 F -0.005 -0.861 -20° 10' 45.70" 1.000E-01 0.500 F 0.049 0.344 21.0 V 0.70 0.33 o 691 1.89 Yes Yes
2009SK1 O C 2017-10-17.16622 1.000E-05 21:58:48.150 1.500E-01 0.500 F -0.148 -0.417 -10° 12' 58.30" 1.000E-01 0.500 F 0.183 0.105 20.0 V 0.70 0.39 o 691 0.86 Yes Yes
2009SK1 O C 2017-10-17.18338 1.000E-05 21:58:50.070 1.500E-01 0.500 F -0.148 -0.227 -10° 13' 35.20" 1.000E-01 0.500 F 0.183 0.020 19.7 V 0.70 0.09 o 691 0.46 Yes Yes
2009SK1 O C 2017-10-17.20052 1.000E-05 21:58:51.820 1.500E-01 0.500 F -0.148 -2.541 -10° 14' 12.00" 1.000E-01 0.500 F 0.183 -0.057 19.2 V 0.70 -0.41 o 691 5.08 No Yes
2008ET7 O C H 2017-10-17.21214 1.000E-05 22:40:20.560 1.500E-01 0.500 F -0.131 -0.372 +11° 04' 35.50" 1.000E-01 0.500 F 0.288 -0.020 21.0 R 0.70 0.35 o 691 0.77 Yes Yes
2008ET7 O C H 2017-10-17.22700 1.000E-05 22:40:19.030 1.500E-01 0.500 F -0.131 0.409 +11° 04' 56.50" 1.000E-01 0.500 F 0.288 0.230 21.3 R 0.70 0.65 o 691 0.96 Yes Yes
2008ET7 O C H 2017-10-17.24176 1.000E-05 22:40:17.430 1.500E-01 0.500 F -0.131 -0.059 +11° 05' 16.60" 1.000E-01 0.500 F 0.288 -0.244 21.6 R 0.70 0.95 o 691 0.52 Yes Yes
2017SS17 O C 2017-10-17.31078 1.000E-05 01:21:00.340 1.500E-01 0.500 F -0.347 0.196 +14° 29' 39.00" 1.000E-01 0.500 F 0.325 -0.018 19.9 V 0.70 0.10 o 691 0.40 Yes Yes
2017TW3 O C 2017-10-17.31599 1.000E-05 01:18:58.230 1.500E-01 0.500 F -0.349 -0.246 -06° 21' 23.90" 1.000E-01 0.500 F 0.032 2.528 21.1 V 0.70 1.33 o 691 5.02 No Yes
2017SS17 O C 2017-10-17.32773 1.000E-05 01:21:07.080 1.500E-01 0.500 F -0.347 -0.177 +14° 29' 32.90" 1.000E-01 0.500 F 0.325 -0.070 19.9 V 0.70 0.10 o 691 0.39 Yes Yes
2017TW3 O C 2017-10-17.33294 1.000E-05 01:18:56.390 1.500E-01 0.500 F -0.349 -0.127 -06° 20' 10.10" 1.000E-01 0.500 F 0.032 -0.141 19.8 V 0.70 0.03 o 691 0.38 Yes Yes
2017SS17 O C 2017-10-17.34479 1.000E-05 01:21:13.890 1.500E-01 0.500 F -0.347 -0.324 +14° 29' 26.50" 1.000E-01 0.500 F 0.325 -0.162 19.8 V 0.70 0.00 o 691 0.74 Yes Yes
2017TW3 O C 2017-10-17.35000 1.000E-05 01:18:54.530 1.500E-01 0.500 F -0.349 -0.208 -06° 18' 52.80" 1.000E-01 0.500 F 0.032 0.140 19.9 V 0.70 0.13 o 691 0.51 Yes Yes
2017HH O C 2017-10-17.35553 1.000E-05 02:39:17.880 1.500E-01 0.500 F -0.448 -0.225 +17° 28' 34.80" 1.000E-01 0.500 F 0.301 -0.046 19.4 V 0.70 -0.02 o 691 0.46 Yes Yes
2017HH O C 2017-10-17.37785 1.000E-05 02:39:14.070 1.500E-01 0.500 F -0.448 -0.215 +17° 28' 46.30" 1.000E-01 0.500 F 0.301 -0.070 19.5 V 0.70 0.08 o 691 0.45 Yes Yes
2017HH O C 2017-10-17.40081 1.000E-05 02:39:10.170 1.500E-01 0.500 F -0.448 -0.009 +17° 28' 58.00" 1.000E-01 0.500 F 0.301 -0.112 19.6 V 0.70 0.18 o 691 0.23 Yes Yes
2002AL14 O C H 2017-10-17.51213 1.000E-05 10:32:40.520 1.500E-01 0.500 F 0.238 -0.249 +05° 12' 25.40" 1.000E-01 0.500 F 0.044 0.754 20.6 R 0.70 0.38 o 691 1.59 Yes Yes
2002AL14 O C H 2017-10-17.51735 1.000E-05 10:32:41.540 1.500E-01 0.500 F 0.238 -0.534 +05° 12' 23.00" 1.000E-01 0.500 F 0.044 0.090 21.0 R 0.70 0.78 o 691 1.08 Yes Yes
2002AL14 O C H 2017-10-17.52255 1.000E-05 10:32:42.630 1.500E-01 0.500 F 0.238 0.292 +05° 12' 22.10" 1.000E-01 0.500 F 0.044 0.919 20.9 R 0.70 0.68 o 691 1.93 Yes Yes
2017TU6 O C K 2017-10-18.40227 1.000E-05 03:30:00.740 1.500E-01 0.500 F -0.355 0.071 +13° 06' 59.20" 1.000E-01 0.500 F 0.129 -0.505 o 691 1.05 Yes No
2017TU6 O C K 2017-10-18.41657 1.000E-05 03:29:59.370 1.500E-01 0.500 F -0.355 0.336 +13° 07' 07.00" 1.000E-01 0.500 F 0.129 0.136 o 691 0.75 Yes No
2017TU6 O C K 2017-10-18.43051 1.000E-05 03:29:57.950 1.500E-01 0.500 F -0.355 -0.656 +13° 07' 14.00" 1.000E-01 0.500 F 0.129 0.181 o 691 1.40 Yes No
2017FJ90 O C 2017-10-19.18195 1.000E-05 22:44:24.100 1.500E-01 0.500 F -0.125 -0.559 -24° 18' 43.00" 1.000E-01 0.500 F 0.317 0.230 18.4 V 0.70 0.24 o 691 1.22 Yes Yes
2017FJ90 O C 2017-10-19.19893 1.000E-05 22:44:30.870 1.500E-01 0.500 F -0.125 -0.125 -24° 19' 50.10" 1.000E-01 0.500 F 0.317 -0.021 18.3 V 0.70 0.14 o 691 0.25 Yes Yes
2017FJ90 O C 2017-10-19.21581 1.000E-05 22:44:37.580 1.500E-01 0.500 F -0.125 0.072 -24° 20' 56.40" 1.000E-01 0.500 F 0.317 -0.126 18.5 V 0.70 0.34 o 691 0.29 Yes Yes
2001AE2 O C 2017-10-19.21938 1.000E-05 23:09:32.670 1.500E-01 0.500 F -0.171 -0.006 -07° 06' 17.60" 1.000E-01 0.500 F 0.300 0.024 o 691 0.05 Yes No
2001AE2 O C 2017-10-19.24231 1.000E-05 23:09:32.310 1.500E-01 0.500 F -0.171 -0.043 -07° 06' 21.10" 1.000E-01 0.500 F 0.300 0.003 o 691 0.09 Yes No
2001AE2 O C 2017-10-19.26444 1.000E-05 23:09:31.980 1.500E-01 0.500 F -0.171 0.081 -07° 06' 24.70" 1.000E-01 0.500 F 0.300 -0.285 o 691 0.59 Yes No
2017QL33 O C H 2017-10-20.09079 1.000E-05 21:08:32.600 1.500E-01 0.500 F -0.038 -0.056 -14° 35' 56.80" 1.000E-01 0.500 F 0.230 0.375 20.4 R 0.70 0.01 o 691 0.76 Yes Yes
2017QL33 O C H 2017-10-20.13278 1.000E-05 21:08:30.970 1.500E-01 0.500 F -0.038 0.738 -14° 35' 42.10" 1.000E-01 0.500 F 0.230 1.609 o 691 3.53 No No
1989UP O C 2017-10-21.28499 1.000E-05 03:25:30.610 1.500E-01 0.500 F -0.246 0.167 -02° 35' 40.20" 1.000E-01 0.500 F 0.176 -0.005 16.2 V 0.70 -0.34 o 691 0.34 Yes Yes
1989UP O C 2017-10-21.30061 1.000E-05 03:25:38.640 1.500E-01 0.500 F -0.246 -0.390 -02° 35' 08.00" 1.000E-01 0.500 F 0.176 -0.063 16.2 V 0.70 -0.33 o 691 0.80 Yes Yes
1989UP O C 2017-10-21.31632 1.000E-05 03:25:46.770 1.500E-01 0.500 F -0.246 0.060 -02° 34' 35.40" 1.000E-01 0.500 F 0.176 -0.001 16.2 V 0.70 -0.33 o 691 0.12 Yes Yes
2011QH21 O C H 2017-10-22.11170 1.000E-05 21:38:03.980 1.500E-01 0.500 F 0.021 0.216 +27° 17' 47.20" 1.000E-01 0.500 F 0.268 0.019 o 691 0.44 Yes No
2012PN28 O C H 2017-10-22.11407 1.000E-05 21:51:09.810 1.500E-01 0.500 F -0.060 0.082 +17° 26' 31.00" 1.000E-01 0.500 F 0.328 0.378 o 691 0.78 Yes No
2011QH21 O C H 2017-10-22.12640 1.000E-05 21:38:04.430 1.500E-01 0.500 F 0.021 -0.145 +27° 17' 21.00" 1.000E-01 0.500 F 0.268 -0.333 o 691 0.73 Yes No
2012PN28 O C H 2017-10-22.12858 1.000E-05 21:51:09.070 1.500E-01 0.500 F -0.060 0.225 +17° 26' 24.40" 1.000E-01 0.500 F 0.328 -0.132 o 691 0.53 Yes No
2011QH21 O C H 2017-10-22.14079 1.000E-05 21:38:04.900 1.500E-01 0.500 F 0.021 -0.115 +27° 16' 56.00" 1.000E-01 0.500 F 0.268 0.006 o 691 0.23 Yes No
2012PN28 O C H 2017-10-22.14371 1.000E-05 21:51:08.280 1.500E-01 0.500 F -0.060 0.104 +17° 26' 18.20" 1.000E-01 0.500 F 0.328 0.033 o 691 0.22 Yes No
2017UQ O C H 2017-10-22.15945 1.000E-05 22:08:46.930 1.500E-01 0.500 F -0.087 0.016 +16° 59' 14.90" 1.000E-01 0.500 F 0.334 -0.108 o 691 0.22 Yes No
2017UQ O C H 2017-10-22.16953 1.000E-05 22:08:42.830 1.500E-01 0.500 F -0.087 -0.047 +17° 00' 19.30" 1.000E-01 0.500 F 0.334 -0.051 o 691 0.14 Yes No
2017SX11 O C K 2017-10-22.18223 1.000E-05 22:24:41.290 1.500E-01 0.500 F -0.059 0.038 +20° 16' 24.10" 1.000E-01 0.500 F 0.283 -0.335 o 691 0.68 Yes No
2016TE93 O C H 2017-10-22.18542 1.000E-05 23:06:29.560 1.500E-01 0.500 F -0.154 -0.017 +19° 15' 52.70" 1.000E-01 0.500 F 0.240 -0.237 o 691 0.48 Yes No
2017SX11 O C K 2017-10-22.18885 1.000E-05 22:24:39.840 1.500E-01 0.500 F -0.059 -0.075 +20° 16' 22.60" 1.000E-01 0.500 F 0.283 0.150 o 691 0.34 Yes No
2016TE93 O C H 2017-10-22.19192 1.000E-05 23:06:29.720 1.500E-01 0.500 F -0.154 -0.282 +19° 15' 18.50" 1.000E-01 0.500 F 0.240 0.207 o 691 0.71 Yes No
2016TE93 O C H 2017-10-22.19836 1.000E-05 23:06:29.920 1.500E-01 0.500 F -0.154 0.039 +19° 14' 44.00" 1.000E-01 0.500 F 0.240 0.044 o 691 0.12 Yes No
2007TF68 O C K 2017-10-22.20393 1.000E-05 23:32:41.680 1.500E-01 0.500 F -0.120 -0.364 +18° 29' 47.00" 1.000E-01 0.500 F 0.315 -0.139 o 691 0.79 Yes No
2007TF68 O C K 2017-10-22.20880 1.000E-05 23:32:39.260 1.500E-01 0.500 F -0.120 -0.918 +18° 30' 21.90" 1.000E-01 0.500 F 0.315 0.284 o 691 1.95 Yes No
2017TE2 O C 2017-10-22.22242 1.000E-05 00:25:19.890 1.500E-01 0.500 F -0.041 -0.709 +09° 36' 05.40" 1.000E-01 0.500 F 0.371 -0.046 21.2 V 0.70 0.65 o 691 1.48 Yes Yes
2017TE2 O C 2017-10-22.23607 1.000E-05 00:25:21.790 1.500E-01 0.500 F -0.041 -0.002 +09° 36' 15.90" 1.000E-01 0.500 F 0.371 0.085 20.5 V 0.70 -0.05 o 691 0.18 Yes Yes
2017TE2 O C 2017-10-22.24970 1.000E-05 00:25:23.630 1.500E-01 0.500 F -0.041 -0.097 +09° 36' 26.00" 1.000E-01 0.500 F 0.371 -0.098 20.6 V 0.70 0.05 o 691 0.29 Yes Yes
2017TW3 O C K 2017-10-22.28958 1.000E-05 01:11:01.200 1.500E-01 0.500 F -0.179 0.111 +00° 02' 11.70" 1.000E-01 0.500 F 0.171 -0.065 o 691 0.26 Yes No
2017TW3 O C K 2017-10-22.30354 1.000E-05 01:10:59.700 1.500E-01 0.500 F -0.179 -0.317 +00° 03' 17.70" 1.000E-01 0.500 F 0.171 0.253 o 691 0.83 Yes No
2017UW42 O C 2017-10-22.33076 1.000E-05 01:36:32.930 1.500E-01 0.500 F -0.217 -0.379 +24° 17' 03.30" 1.000E-01 0.500 F 0.351 0.060 19.8 V 0.70 0.04 o 691 0.77 Yes Yes
2017UW42 O C 2017-10-22.34461 1.000E-05 01:36:31.860 1.500E-01 0.500 F -0.217 -0.146 +24° 16' 58.90" 1.000E-01 0.500 F 0.351 0.031 19.8 V 0.70 0.04 o 691 0.30 Yes Yes
2017UW42 O C 2017-10-22.35830 1.000E-05 01:36:30.800 1.500E-01 0.500 F -0.217 0.034 +24° 16' 54.60" 1.000E-01 0.500 F 0.351 0.078 19.7 V 0.70 -0.06 o 691 0.17 Yes Yes
2017TS1 O C H 2017-10-22.36368 1.000E-05 02:03:30.120 1.500E-01 0.500 F -0.319 0.096 +19° 56' 12.50" 1.000E-01 0.500 F 0.227 -0.034 o 691 0.21 Yes No
1950DA O C 2017-10-22.36536 1.000E-05 02:13:52.130 1.500E-01 0.500 F -0.133 0.271 +26° 46' 20.20" 1.000E-01 0.500 F 0.281 0.357 20.2 V 0.70 -0.53 o 691 0.90 Yes Yes
2017TS1 O C H 2017-10-22.36974 1.000E-05 02:03:30.200 1.500E-01 0.500 F -0.319 0.201 +19° 56' 00.50" 1.000E-01 0.500 F 0.227 -0.008 o 691 0.42 Yes No
1950DA O C 2017-10-22.37138 1.000E-05 02:13:51.500 1.500E-01 0.500 F -0.133 -0.452 +26° 46' 18.50" 1.000E-01 0.500 F 0.281 -0.037 20.4 V 0.70 -0.33 o 691 0.91 Yes Yes
2017TS1 O C H 2017-10-22.37574 1.000E-05 02:03:30.240 1.500E-01 0.500 F -0.319 -0.280 +19° 55' 48.50" 1.000E-01 0.500 F 0.227 -0.077 o 691 0.60 Yes No
1950DA O C 2017-10-22.37739 1.000E-05 02:13:50.930 1.500E-01 0.500 F -0.133 -0.387 +26° 46' 16.90" 1.000E-01 0.500 F 0.281 -0.329 20.6 V 0.70 -0.13 o 691 1.02 Yes Yes
2017UJ2 O C H 2017-10-22.38260 1.000E-05 02:28:42.680 1.500E-01 0.500 F -0.117 0.098 +15° 53' 20.40" 1.000E-01 0.500 F 0.339 -0.403 o 691 0.89 Yes No
2017UO1 O C H 2017-10-22.38516 1.000E-05 02:24:05.150 1.500E-01 0.500 F -0.210 0.273 -02° 33' 18.80" 1.000E-01 0.500 F 0.202 -0.120 o 691 0.61 Yes No
2017UJ2 O C H 2017-10-22.38661 1.000E-05 02:28:40.440 1.500E-01 0.500 F -0.117 0.223 +15° 53' 32.90" 1.000E-01 0.500 F 0.339 -0.273 o 691 0.76 Yes No
2017UO1 O C H 2017-10-22.38914 1.000E-05 02:24:07.460 1.500E-01 0.500 F -0.210 0.090 -02° 33' 07.20" 1.000E-01 0.500 F 0.202 0.022 o 691 0.19 Yes No
2017UJ2 O C H 2017-10-22.39057 1.000E-05 02:28:38.190 1.500E-01 0.500 F -0.117 -0.636 +15° 53' 45.30" 1.000E-01 0.500 F 0.339 0.176 o 691 1.42 Yes No
2017UO1 O C H 2017-10-22.39310 1.000E-05 02:24:09.780 1.500E-01 0.500 F -0.210 0.200 -02° 32' 55.80" 1.000E-01 0.500 F 0.202 0.016 o 691 0.41 Yes No
2017UF5 O C K 2017-10-22.43388 1.000E-05 03:12:18.040 1.500E-01 0.500 F -0.262 0.178 +15° 56' 22.00" 1.000E-01 0.500 F 0.228 0.072 o 691 0.39 Yes No
2017UB5 O C K 2017-10-22.43963 1.000E-05 03:17:22.460 1.500E-01 0.500 F -0.264 0.028 +23° 59' 48.30" 1.000E-01 0.500 F 0.283 -0.100 o 691 0.21 Yes No
2017UF5 O C K 2017-10-22.45427 1.000E-05 03:12:16.640 1.500E-01 0.500 F -0.262 -0.024 +15° 56' 04.20" 1.000E-01 0.500 F 0.228 -0.423 o 691 0.86 Yes No
2017UB5 O C K 2017-10-22.46002 1.000E-05 03:17:22.740 1.500E-01 0.500 F -0.264 -0.156 +23° 59' 57.30" 1.000E-01 0.500 F 0.283 0.181 o 691 0.48 Yes No
2017UF5 O C K 2017-10-22.47466 1.000E-05 03:12:15.250 1.500E-01 0.500 F -0.262 -0.180 +15° 55' 47.50" 1.000E-01 0.500 F 0.228 0.224 o 691 0.58 Yes No
2017UB5 O C K 2017-10-22.48042 1.000E-05 03:17:23.060 1.500E-01 0.500 F -0.264 0.031 +24° 00' 05.70" 1.000E-01 0.500 F 0.283 -0.031 o 691 0.09 Yes No
2017TQ6 O C K 2017-10-23.12110 1.000E-05 21:22:10.380 1.500E-01 0.500 F -0.030 0.083 +11° 12' 00.80" 1.000E-01 0.500 F 0.254 0.348 o 691 0.74 Yes No
2017TZ4 O C K 2017-10-23.12872 1.000E-05 21:31:18.920 1.500E-01 0.500 F 0.018 -0.238 +14° 46' 27.00" 1.000E-01 0.500 F 0.266 -0.100 o 691 0.55 Yes No
2017TQ6 O C K 2017-10-23.13887 1.000E-05 21:22:14.350 1.500E-01 0.500 F -0.030 0.046 +11° 12' 26.80" 1.000E-01 0.500 F 0.254 0.306 o 691 0.64 Yes No
2017TQ6 O C K 2017-10-23.14531 1.000E-05 21:22:15.830 1.500E-01 0.500 F -0.030 0.620 +11° 12' 36.00" 1.000E-01 0.500 F 0.254 0.087 o 691 1.30 Yes No
2017TZ4 O C K 2017-10-23.14650 1.000E-05 21:31:03.250 1.500E-01 0.500 F 0.018 -0.627 +14° 45' 01.20" 1.000E-01 0.500 F 0.266 -0.404 o 691 1.59 Yes No
2017UA1 O C K 2017-10-23.20978 1.000E-05 23:54:11.780 1.500E-01 0.500 F -0.117 -0.124 +09° 27' 00.00" 1.000E-01 0.500 F 0.284 0.017 o 691 0.26 Yes No
2017OR18 O C K 2017-10-23.22126 1.000E-05 23:49:32.050 1.500E-01 0.500 F -0.095 0.002 +11° 39' 01.80" 1.000E-01 0.500 F 0.340 -0.028 o 691 0.06 Yes No
2017OR18 O C K 2017-10-23.22804 1.000E-05 23:49:32.210 1.500E-01 0.500 F -0.095 -0.018 +11° 38' 59.30" 1.000E-01 0.500 F 0.340 0.216 o 691 0.44 Yes No
2017UA1 O C K 2017-10-23.22978 1.000E-05 23:54:06.210 1.500E-01 0.500 F -0.117 -0.220 +09° 27' 48.20" 1.000E-01 0.500 F 0.284 -0.055 o 691 0.46 Yes No
2017OR18 O C K 2017-10-23.24576 1.000E-05 23:49:32.630 1.500E-01 0.500 F -0.095 -0.064 +11° 38' 52.00" 1.000E-01 0.500 F 0.340 0.113 o 691 0.26 Yes No
2017TO5 O C K 2017-10-23.32742 1.000E-05 01:00:19.260 1.500E-01 0.500 F -0.244 0.675 +15° 25' 04.30" 1.000E-01 0.500 F 0.424 -0.335 o 691 1.60 Yes No
2017TO5 O C K 2017-10-23.33316 1.000E-05 01:00:21.420 1.500E-01 0.500 F -0.244 1.982 +15° 24' 53.30" 1.000E-01 0.500 F 0.424 0.006 o 691 3.75 No No
2017TO5 O C K 2017-10-23.34737 1.000E-05 01:00:26.570 1.500E-01 0.500 F -0.244 2.204 +15° 24' 24.10" 1.000E-01 0.500 F 0.424 -1.024 o 691 4.61 No No
2017PA27 O C 2017-10-23.38225 1.000E-05 01:53:16.020 1.500E-01 0.500 F -0.216 0.678 +10° 59' 18.10" 1.000E-01 0.500 F 0.328 -0.246 20.2 V 0.70 0.11 o 691 1.45 Yes Yes
2017PA27 O C 2017-10-23.39726 1.000E-05 01:53:15.770 1.500E-01 0.500 F -0.216 -0.690 +10° 59' 05.10" 1.000E-01 0.500 F 0.328 0.463 20.0 V 0.70 -0.09 o 691 1.67 Yes Yes
2017PA27 O C 2017-10-23.41226 1.000E-05 01:53:15.660 1.500E-01 0.500 F -0.216 -0.100 +10° 58' 50.90" 1.000E-01 0.500 F 0.328 -0.015 20.5 V 0.70 0.41 o 691 0.20 Yes Yes
2017QL33 O C H 2017-10-24.07658 1.000E-05 21:07:08.710 1.500E-01 0.500 F -0.038 0.265 -14° 11' 41.90" 1.000E-01 0.500 F 0.230 -0.336 o 691 0.86 Yes No
2017QL33 O C H 2017-10-24.08024 1.000E-05 21:07:08.610 1.500E-01 0.500 F -0.038 0.210 -14° 11' 40.10" 1.000E-01 0.500 F 0.230 -0.017 o 691 0.42 Yes No
2017QL33 O C H 2017-10-24.08389 1.000E-05 21:07:08.520 1.500E-01 0.500 F -0.038 0.298 -14° 11' 38.50" 1.000E-01 0.500 F 0.230 0.101 o 691 0.63 Yes No
2011QH21 O C K 2017-10-24.10490 1.000E-05 21:39:24.360 1.500E-01 0.500 F 0.011 0.166 +26° 19' 38.30" 1.000E-01 0.500 F 0.274 0.151 o 691 0.45 Yes No
2011QH21 O C K 2017-10-24.12866 1.000E-05 21:39:25.250 1.500E-01 0.500 F 0.011 -0.310 +26° 18' 57.00" 1.000E-01 0.500 F 0.274 0.174 o 691 0.72 Yes No
2007TF68 O C K 2017-10-24.28904 1.000E-05 23:16:25.500 1.500E-01 0.500 F -0.037 -0.219 +22° 28' 19.70" 1.000E-01 0.500 F 0.351 -0.205 o 691 0.62 Yes No
2007TF68 O C K 2017-10-24.29344 1.000E-05 23:16:23.350 1.500E-01 0.500 F -0.037 -0.721 +22° 28' 48.70" 1.000E-01 0.500 F 0.351 -0.081 o 691 1.49 Yes No
2007TF68 O C K 2017-10-24.29784 1.000E-05 23:16:21.220 1.500E-01 0.500 F -0.037 -0.968 +22° 29' 17.90" 1.000E-01 0.500 F 0.351 0.259 o 691 2.06 Yes No
2017UW4 O C K 2017-10-24.48524 1.000E-05 06:00:30.520 1.500E-01 0.500 F -0.116 0.794 -14° 19' 08.00" 1.000E-01 0.500 F -0.094 -0.015 o 691 1.62 Yes No
2017UW4 O C K 2017-10-24.50221 1.000E-05 06:00:33.230 1.500E-01 0.500 F -0.116 0.105 -14° 18' 41.00" 1.000E-01 0.500 F -0.094 0.101 o 691 0.30 Yes No
2017UM6 O C K 2017-10-25.08433 1.000E-05 21:30:44.670 1.500E-01 0.500 F 0.032 0.027 +05° 24' 55.00" 1.000E-01 0.500 F 0.199 0.858 o 691 1.75 Yes No
2017UM6 O C K 2017-10-25.10882 1.000E-05 21:30:41.950 1.500E-01 0.500 F 0.082 -0.218 +05° 28' 21.40" 1.000E-01 0.500 F 0.245 1.053 o 691 2.20 Yes No
2017TX3 O C H 2017-10-25.20109 1.000E-05 23:46:18.860 1.500E-01 0.500 F -0.068 0.329 -07° 50' 43.60" 1.000E-01 0.500 F 0.217 -0.026 19.8 R 0.70 0.24 o 691 0.66 Yes Yes
2002TC9 O C 2017-10-25.20109 1.000E-05 23:43:56.490 1.500E-01 0.500 F -0.201 -0.115 -08° 31' 10.90" 1.000E-01 0.500 F 0.078 0.003 18.8 V 0.70 0.16 o 691 0.23 Yes Yes
2017TJ4 O C K 2017-10-25.20242 1.000E-05 23:51:00.590 1.500E-01 0.500 F -0.252 -0.212 -15° 54' 00.00" 1.000E-01 0.500 F 0.203 -0.015 o 691 0.44 Yes No
2017TX3 O C H 2017-10-25.20595 1.000E-05 23:46:18.720 1.500E-01 0.500 F -0.068 0.113 -07° 50' 34.60" 1.000E-01 0.500 F 0.217 -0.252 19.8 R 0.70 0.24 o 691 0.55 Yes Yes
2002TC9 O C 2017-10-25.20595 1.000E-05 23:43:56.460 1.500E-01 0.500 F -0.201 0.050 -08° 31' 18.00" 1.000E-01 0.500 F 0.078 -0.105 18.7 V 0.70 0.06 o 691 0.23 Yes Yes
2017TJ4 O C K 2017-10-25.20728 1.000E-05 23:50:58.210 1.500E-01 0.500 F -0.252 -0.094 -15° 54' 16.70" 1.000E-01 0.500 F 0.203 -0.200 o 691 0.46 Yes No
2017TX3 O C H 2017-10-25.21081 1.000E-05 23:46:18.600 1.500E-01 0.500 F -0.068 0.192 -07° 50' 25.20" 1.000E-01 0.500 F 0.217 -0.081 19.8 R 0.70 0.24 o 691 0.42 Yes Yes
2002TC9 O C 2017-10-25.21081 1.000E-05 23:43:56.410 1.500E-01 0.500 F -0.201 -0.083 -08° 31' 24.80" 1.000E-01 0.500 F 0.078 0.083 18.7 V 0.70 0.05 o 691 0.24 Yes Yes
2017TJ4 O C K 2017-10-25.21215 1.000E-05 23:50:55.800 1.500E-01 0.500 F -0.252 -0.357 -15° 54' 32.90" 1.000E-01 0.500 F 0.203 0.100 o 691 0.77 Yes No
2017MO7 O C H 2017-10-25.22170 1.000E-05 00:20:36.850 1.500E-01 0.500 F -0.084 0.013 +09° 22' 55.10" 1.000E-01 0.500 F 0.377 0.182 o 691 0.37 Yes No
2017UC1 O C K 2017-10-25.22378 1.000E-05 00:38:41.410 1.500E-01 0.500 F -0.336 -0.554 +07° 44' 03.50" 1.000E-01 0.500 F 0.207 -0.161 o 691 1.29 Yes No
2017MO7 O C H 2017-10-25.24174 1.000E-05 00:20:37.210 1.500E-01 0.500 F -0.084 -0.338 +09° 22' 42.20" 1.000E-01 0.500 F 0.377 -0.146 o 691 0.75 Yes No
2017UC1 O C K 2017-10-25.24383 1.000E-05 00:38:37.780 1.500E-01 0.500 F -0.336 0.465 +07° 44' 36.00" 1.000E-01 0.500 F 0.207 -0.438 o 691 1.37 Yes No
2017MO7 O C H 2017-10-25.26176 1.000E-05 00:20:37.630 1.500E-01 0.500 F -0.084 0.182 +09° 22' 29.60" 1.000E-01 0.500 F 0.377 -0.161 o 691 0.49 Yes No
2017UC1 O C K 2017-10-25.26385 1.000E-05 00:38:34.030 1.500E-01 0.500 F -0.336 -0.432 +07° 45' 08.70" 1.000E-01 0.500 F 0.207 -0.395 o 691 1.29 Yes No
2017TZ3 O C K 2017-10-25.28973 1.000E-05 01:15:45.950 1.500E-01 0.500 F -0.188 -0.247 -07° 03' 52.50" 1.000E-01 0.500 F 0.068 -0.021 o 691 0.51 Yes No
2017TZ3 O C K 2017-10-25.29939 1.000E-05 01:15:47.060 1.500E-01 0.500 F -0.188 -0.088 -07° 04' 25.70" 1.000E-01 0.500 F 0.068 -0.014 o 691 0.18 Yes No
2017TZ3 O C K 2017-10-25.30908 1.000E-05 01:15:48.150 1.500E-01 0.500 F -0.188 -0.363 -07° 04' 58.70" 1.000E-01 0.500 F 0.068 0.290 o 691 0.94 Yes No
2017UQ5 O C K 2017-10-25.35408 1.000E-05 02:03:16.400 1.500E-01 0.500 F -0.348 0.630 +16° 29' 25.00" 1.000E-01 0.500 F 0.278 -0.021 o 691 1.38 Yes No
2017UQ5 O C K 2017-10-25.36400 1.000E-05 02:03:18.130 1.500E-01 0.500 F -0.348 0.315 +16° 30' 56.00" 1.000E-01 0.500 F 0.278 0.383 o 691 1.06 Yes No
2017UV5 O C K 2017-10-25.38725 1.000E-05 02:50:39.710 1.500E-01 0.500 F -0.100 -0.019 +09° 00' 38.00" 1.000E-01 0.500 F 0.187 -0.139 o 691 0.28 Yes No
2017UV5 O C K 2017-10-25.39758 1.000E-05 02:50:38.750 1.500E-01 0.500 F -0.100 -0.102 +09° 01' 00.50" 1.000E-01 0.500 F 0.187 -0.071 o 691 0.25 Yes No
2017UV5 O C K 2017-10-25.40790 1.000E-05 02:50:37.800 1.500E-01 0.500 F -0.100 -0.082 +09° 01' 23.00" 1.000E-01 0.500 F 0.187 0.032 o 691 0.18 Yes No
2017US1 O C K 2017-10-25.42742 1.000E-05 03:52:25.160 1.500E-01 0.500 F -0.124 -0.550 +07° 10' 03.50" 1.000E-01 0.500 F 0.251 0.060 o 691 1.17 Yes No
2017US1 O C K 2017-10-25.44245 1.000E-05 03:52:22.240 1.500E-01 0.500 F -0.124 0.218 +07° 11' 27.50" 1.000E-01 0.500 F 0.251 -0.009 o 691 0.46 Yes No
2017US1 O C K 2017-10-25.45750 1.000E-05 03:52:19.280 1.500E-01 0.500 F -0.124 0.316 +07° 12' 51.90" 1.000E-01 0.500 F 0.251 0.233 o 691 0.82 Yes No
2017UX4 O C K 2017-10-25.46777 1.000E-05 05:20:51.670 1.500E-01 0.500 F -0.286 -0.424 -05° 40' 08.20" 1.000E-01 0.500 F 0.069 -0.088 o 691 0.88 Yes No
2017UV4 O C H 2017-10-25.47443 1.000E-05 05:36:17.670 1.500E-01 0.500 F -0.091 0.277 -17° 22' 19.80" 1.000E-01 0.500 F -0.068 -0.341 o 691 0.89 Yes No
2017UX4 O C K 2017-10-25.47559 1.000E-05 05:20:47.810 1.500E-01 0.500 F -0.286 -0.334 -05° 39' 27.70" 1.000E-01 0.500 F 0.069 -0.198 o 691 0.79 Yes No
2017UV4 O C H 2017-10-25.48225 1.000E-05 05:36:20.090 1.500E-01 0.500 F -0.091 -0.182 -17° 22' 47.30" 1.000E-01 0.500 F -0.068 0.191 o 691 0.54 Yes No
2017UX4 O C K 2017-10-25.48341 1.000E-05 05:20:43.990 1.500E-01 0.500 F -0.286 0.335 -05° 38' 47.20" 1.000E-01 0.500 F 0.069 -0.319 o 691 0.95 Yes No
2017UV4 O C H 2017-10-25.49007 1.000E-05 05:36:22.550 1.500E-01 0.500 F -0.091 -0.095 -17° 23' 15.50" 1.000E-01 0.500 F -0.068 0.015 o 691 0.19 Yes No
2001VC2 O C K 2017-10-25.49577 1.000E-05 07:52:36.020 1.500E-01 0.500 F -0.106 -0.862 +11° 40' 28.80" 1.000E-01 0.500 F 0.135 0.518 o 691 2.02 Yes No
2001VC2 O C K 2017-10-25.50411 1.000E-05 07:52:38.150 1.500E-01 0.500 F -0.106 0.359 +11° 40' 34.80" 1.000E-01 0.500 F 0.135 -0.183 o 691 0.81 Yes No
2001VC2 O C K 2017-10-25.51245 1.000E-05 07:52:40.190 1.500E-01 0.500 F -0.106 0.268 +11° 40' 41.40" 1.000E-01 0.500 F 0.135 -0.276 o 691 0.77 Yes No
2017UO6 O C K 2017-10-26.13895 1.000E-05 23:26:27.830 1.500E-01 0.500 F -0.100 -0.057 -00° 34' 45.50" 1.000E-01 0.500 F 0.456 0.109 o 691 0.25 Yes No
2017UO6 O C K 2017-10-26.14735 1.000E-05 23:26:26.860 1.500E-01 0.500 F -0.100 0.287 -00° 34' 26.80" 1.000E-01 0.500 F 0.456 0.012 o 691 0.58 Yes No
2017UO6 O C K 2017-10-26.15578 1.000E-05 23:26:25.840 1.500E-01 0.500 F -0.100 -0.065 -00° 34' 08.00" 1.000E-01 0.500 F 0.456 -0.048 o 691 0.16 Yes No
2017UG6 O C H 2017-10-26.16732 1.000E-05 00:23:43.480 1.500E-01 0.500 F -0.138 0.094 +09° 14' 45.40" 1.000E-01 0.500 F 0.332 -0.184 o 691 0.42 Yes No
2017UG6 O C H 2017-10-26.16853 1.000E-05 00:23:44.290 1.500E-01 0.500 F -0.138 0.136 +09° 15' 09.90" 1.000E-01 0.500 F 0.332 -0.107 o 691 0.35 Yes No
2017UG6 O C H 2017-10-26.16975 1.000E-05 00:23:45.070 1.500E-01 0.500 F -0.138 -0.360 +09° 15' 34.20" 1.000E-01 0.500 F 0.332 -0.429 o 691 1.15 Yes No
2017UR4 O C K 2017-10-26.26740 1.000E-05 01:18:17.760 1.500E-01 0.500 F -0.258 -0.116 +11° 06' 03.00" 1.000E-01 0.500 F 0.369 0.252 o 691 0.56 Yes No
2017TB5 O C K 2017-10-26.27637 1.000E-05 01:46:30.450 1.500E-01 0.500 F -0.193 -0.041 +05° 10' 46.10" 1.000E-01 0.500 F 0.207 -0.145 o 691 0.32 Yes No
2017UT4 O C K 2017-10-26.28848 1.000E-05 01:49:00.550 1.500E-01 0.500 F -0.333 0.039 +13° 57' 52.50" 1.000E-01 0.500 F 0.215 -0.012 o 691 0.09 Yes No
2017UR4 O C K 2017-10-26.29519 1.000E-05 01:18:15.060 1.500E-01 0.500 F -0.258 -0.184 +11° 05' 11.00" 1.000E-01 0.500 F 0.369 0.197 o 691 0.54 Yes No
2017TB5 O C K 2017-10-26.30439 1.000E-05 01:46:37.400 1.500E-01 0.500 F -0.193 -0.325 +05° 09' 33.90" 1.000E-01 0.500 F 0.207 -0.015 o 691 0.70 Yes No
2017UT4 O C K 2017-10-26.31651 1.000E-05 01:48:57.820 1.500E-01 0.500 F -0.333 0.372 +13° 59' 16.50" 1.000E-01 0.500 F 0.215 -0.200 o 691 0.91 Yes No
2017UR4 O C K 2017-10-26.32321 1.000E-05 01:18:12.380 1.500E-01 0.500 F -0.258 0.307 +11° 04' 18.50" 1.000E-01 0.500 F 0.369 0.142 o 691 0.68 Yes No
2017TB5 O C K 2017-10-26.33225 1.000E-05 01:46:44.360 1.500E-01 0.500 F -0.193 0.160 +05° 08' 21.90" 1.000E-01 0.500 F 0.207 -0.083 o 691 0.40 Yes No
2017UO5 O C K 2017-10-26.37012 1.000E-05 02:00:14.250 1.500E-01 0.500 F -0.156 -0.154 +09° 03' 09.00" 1.000E-01 0.500 F 0.282 -0.188 o 691 0.51 Yes No
2017UE6 O C K 2017-10-26.37684 1.000E-05 02:22:12.570 1.500E-01 0.500 F -0.246 -0.203 +00° 30' 31.00" 1.000E-01 0.500 F 0.291 -0.275 o 691 0.74 Yes No
2017UO5 O C K 2017-10-26.39277 1.000E-05 02:00:23.740 1.500E-01 0.500 F -0.156 0.014 +09° 03' 15.50" 1.000E-01 0.500 F 0.282 0.042 o 691 0.09 Yes No
2017UE6 O C K 2017-10-26.39943 1.000E-05 02:22:09.300 1.500E-01 0.500 F -0.246 -0.396 +00° 27' 57.00" 1.000E-01 0.500 F 0.291 0.365 o 691 1.13 Yes No
2017UO5 O C K 2017-10-26.41525 1.000E-05 02:00:33.220 1.500E-01 0.500 F -0.156 0.442 +09° 03' 21.00" 1.000E-01 0.500 F 0.282 -0.274 o 691 1.14 Yes No
2017UE6 O C K 2017-10-26.42191 1.000E-05 02:22:06.100 1.500E-01 0.500 F -0.246 -0.032 +00° 25' 23.10" 1.000E-01 0.500 F 0.291 0.369 o 691 0.80 Yes No
2017UQ O C H 2017-10-27.08035 1.000E-05 21:39:00.100 1.500E-01 0.500 F 0.013 -0.392 +24° 56' 23.10" 1.000E-01 0.500 F 0.349 -0.386 20.0 R 0.70 0.05 o 691 1.12 Yes Yes
2008ET7 O C K 2017-10-27.08638 1.000E-05 22:28:27.480 1.500E-01 0.500 F -0.038 0.117 +14° 37' 21.90" 1.000E-01 0.500 F 0.388 -0.143 20.5 R 0.70 -0.53 o 691 0.41 Yes Yes
2008ET7 O C K 2017-10-27.09403 1.000E-05 22:28:27.050 1.500E-01 0.500 F -0.038 -0.210 +14° 37' 31.40" 1.000E-01 0.500 F 0.388 0.141 20.1 R 0.70 -0.93 o 691 0.56 Yes Yes
2017UQ O C H 2017-10-27.09586 1.000E-05 21:38:54.530 1.500E-01 0.500 F 0.013 -0.697 +24° 57' 45.20" 1.000E-01 0.500 F 0.349 0.472 20.0 R 0.70 0.05 o 691 1.73 Yes Yes
2008ET7 O C K 2017-10-27.10762 1.000E-05 22:28:26.340 1.500E-01 0.500 F -0.038 0.012 +14° 37' 47.50" 1.000E-01 0.500 F 0.388 -0.105 21.0 R 0.70 -0.03 o 691 0.23 Yes Yes
2017UQ O C H 2017-10-27.11162 1.000E-05 21:38:48.960 1.500E-01 0.500 F 0.013 0.225 +24° 59' 07.00" 1.000E-01 0.500 F 0.349 -0.048 20.1 R 0.70 0.14 o 691 0.47 Yes Yes
2017RH15 O C H 2017-10-27.13531 1.000E-05 22:36:59.610 1.500E-01 0.500 F -0.062 -0.253 -24° 26' 53.10" 1.000E-01 0.500 F 0.292 -0.113 20.2 R 0.70 -0.30 o 691 0.56 Yes Yes
2017RH15 O C H 2017-10-27.15564 1.000E-05 22:37:00.160 1.500E-01 0.500 F -0.062 -0.216 -24° 26' 53.70" 1.000E-01 0.500 F 0.292 -0.302 20.6 R 0.70 0.10 o 691 0.75 Yes Yes
2017RH15 O C H 2017-10-27.17597 1.000E-05 22:37:00.750 1.500E-01 0.500 F -0.062 0.330 -24° 26' 53.60" 1.000E-01 0.500 F 0.292 -0.119 20.7 R 0.70 0.20 o 691 0.71 Yes Yes
2016TE93 O C K 2017-10-27.18831 1.000E-05 23:10:28.240 1.500E-01 0.500 F -0.095 0.296 +12° 10' 17.10" 1.000E-01 0.500 F 0.277 0.044 18.9 R 0.70 -1.11 o 691 0.61 Yes Yes
2017TR1 O C H 2017-10-27.19200 1.000E-05 23:36:59.460 1.500E-01 0.500 F -0.183 0.020 +22° 02' 02.20" 1.000E-01 0.500 F 0.258 -0.022 19.5 R 0.70 0.48 o 691 0.06 Yes Yes
2017TX3 O C 2017-10-27.19389 1.000E-05 23:45:56.920 1.500E-01 0.500 F -0.108 -0.011 -06° 47' 06.00" 1.000E-01 0.500 F 0.288 -0.100 20.1 V 0.70 0.09 o 691 0.20 Yes Yes
2017UA8 O C H 2017-10-27.19566 1.000E-05 00:03:51.510 1.500E-01 0.500 F -0.231 -0.314 -10° 43' 43.40" 1.000E-01 0.500 F 0.217 1.188 20.4 R 0.70 -0.31 o 691 2.52 Yes Yes
2016TE93 O C K 2017-10-27.19781 1.000E-05 23:10:28.660 1.500E-01 0.500 F -0.095 0.327 +12° 09' 31.10" 1.000E-01 0.500 F 0.277 0.084 19.0 R 0.70 -1.01 o 691 0.69 Yes Yes
2017TR1 O C H 2017-10-27.20137 1.000E-05 23:36:59.580 1.500E-01 0.500 F -0.183 0.072 +22° 02' 48.40" 1.000E-01 0.500 F 0.258 0.111 19.3 R 0.70 0.28 o 691 0.27 Yes Yes
2017TX3 O C 2017-10-27.20336 1.000E-05 23:45:56.730 1.500E-01 0.500 F -0.108 -0.313 -06° 46' 47.50" 1.000E-01 0.500 F 0.288 0.111 19.7 V 0.70 -0.31 o 691 0.67 Yes Yes
2017UA8 O C H 2017-10-27.20513 1.000E-05 00:03:51.440 1.500E-01 0.500 F -0.231 1.926 -10° 43' 31.40" 1.000E-01 0.500 F 0.217 -0.793 20.1 R 0.70 -0.61 o 691 4.10 No Yes
2016TE93 O C K 2017-10-27.20730 1.000E-05 23:10:29.080 1.500E-01 0.500 F -0.095 0.349 +12° 08' 44.90" 1.000E-01 0.500 F 0.277 -0.115 o 691 0.75 Yes No
2017TR1 O C H 2017-10-27.21085 1.000E-05 23:36:59.690 1.500E-01 0.500 F -0.183 -0.043 +22° 03' 34.70" 1.000E-01 0.500 F 0.258 -0.129 19.3 R 0.70 0.28 o 691 0.27 Yes Yes
2017TX3 O C 2017-10-27.21296 1.000E-05 23:45:56.570 1.500E-01 0.500 F -0.108 -0.141 -06° 46' 29.10" 1.000E-01 0.500 F 0.288 -0.040 20.0 V 0.70 -0.01 o 691 0.29 Yes Yes
2017UA8 O C H 2017-10-27.21472 1.000E-05 00:03:51.050 1.500E-01 0.500 F -0.231 -0.510 -10° 43' 16.10" 1.000E-01 0.500 F 0.217 0.336 20.8 R 0.70 0.09 o 691 1.24 Yes Yes
2017SL14 O C K 2017-10-27.22617 1.000E-05 00:26:40.260 1.500E-01 0.500 F -0.370 0.051 -10° 31' 49.10" 1.000E-01 0.500 F 0.177 0.045 20.2 R 0.70 -0.95 o 691 0.14 Yes Yes
2017SP12 O C H 2017-10-27.23389 1.000E-05 00:49:09.710 1.500E-01 0.500 F -0.390 0.079 -10° 03' 05.20" 1.000E-01 0.500 F 0.160 -0.295 20.2 R 0.70 -0.06 o 691 0.63 Yes Yes
2017SL14 O C K 2017-10-27.24150 1.000E-05 00:26:38.970 1.500E-01 0.500 F -0.370 -0.154 -10° 32' 04.90" 1.000E-01 0.500 F 0.177 -0.395 20.9 R 0.70 -0.25 o 691 0.86 Yes Yes
2017SP12 O C H 2017-10-27.24921 1.000E-05 00:49:08.530 1.500E-01 0.500 F -0.390 0.114 -10° 02' 38.30" 1.000E-01 0.500 F 0.160 0.309 20.7 R 0.70 0.43 o 691 0.68 Yes Yes
2017SL14 O C K 2017-10-27.25687 1.000E-05 00:26:37.710 1.500E-01 0.500 F -0.370 0.102 -10° 32' 20.00" 1.000E-01 0.500 F 0.177 -0.157 o 691 0.38 Yes No
2017SP12 O C H 2017-10-27.26458 1.000E-05 00:49:07.330 1.500E-01 0.500 F -0.390 -0.113 -10° 02' 12.30" 1.000E-01 0.500 F 0.160 -0.085 20.8 R 0.70 0.53 o 691 0.29 Yes Yes
2017TW3 O C K 2017-10-27.26608 1.000E-05 01:03:39.120 1.500E-01 0.500 F -0.106 -0.257 +06° 31' 17.20" 1.000E-01 0.500 F 0.329 0.098 18.2 R 0.70 -1.22 o 691 0.57 Yes Yes
2017TZ3 O C K 2017-10-27.26996 1.000E-05 01:21:31.530 1.500E-01 0.500 F -0.130 0.866 -09° 10' 45.00" 1.000E-01 0.500 F 0.117 0.191 o 691 1.82 Yes No
2013UM9 O C H 2017-10-27.27349 1.000E-05 01:20:23.830 1.500E-01 0.500 F -0.054 0.004 +03° 10' 40.10" 1.000E-01 0.500 F 0.283 -0.104 18.8 R 0.70 -0.25 o 691 0.21 Yes Yes
2017PB27 O C H 2017-10-27.27637 1.000E-05 01:13:39.000 1.500E-01 0.500 F -0.172 0.098 +28° 34' 14.60" 1.000E-01 0.500 F 0.154 0.242 21.0 R 0.70 1.01 o 691 0.53 Yes Yes

[1-200] [201-400] [401-600] [601-800] [801-1000] [1001-1200] [1201-1400] [1401-1600] [1601-1800] [1801-2000] [2001-2200] [2201-2400] [2401-2600] [2601-2800] [2801-3000] [3001-3200] [3201-3400] [3401-3600] [3601-3800] [3801-4000] [4001-4200] [4201-4400] [4401-4600] [4601-4800] [4801-5000] [5001-5200] [5201-5400] [5401-5600] [5601-5800] [5801-6000] [6001-6200] [6201-6400] [6401-6600] [6601-6800] [6801-7000] [7001-7200] [7201-7400] [7401-7600] [7601-7800] [7801-8000] [8001-8200] [8201-8400] [8401-8600] [8601-8800] [8801-9000] [9001-9200] [9201-9400] [9401-9600] [9601-9800] [9801-10000] [10001-10200] [10201-10400] [10401-10600] [10601-10800] [10801-11000] [11001-11200] [11201-11400] [11401-11600] [11601-11800] [11801-12000] [12001-12200] [12201-12400] [12401-12600] [12601-12800] [12801-13000] [13001-13200] [13201-13400] [13401-13600] [13601-13800] [13801-14000] [14001-14200] [14201-14400] [14401-14600] [14601-14800] [14801-15000] [15001-15200] [15201-15400] [15401-15600] [15601-15800] [15801-16000] [16001-16200] [16201-16400] [16401-16600] [16601-16800] [16801-17000] [17001-17200] [17201-17400] [17401-17600] [17601-17800] [17801-18000] [18001-18200] [18201-18400] [18401-18600] [18601-18800] [18801-19000] [19001-19200] [19201-19400] [19401-19600] [19601-19800] [19801-20000] [20001-20200] [20201-20400] [20401-20600] [20601-20800] [20801-21000] [21001-21200] [21201-21400] [21401-21600] [21601-21800] [21801-22000] [22001-22200] [22201-22400] [22401-22600] [22601-22800] [22801-23000] [23001-23200] [23201-23400] [23401-23600] [23601-23800] [23801-24000] [24001-24200] [24201-24400] [24401-24600] [24601-24800] [24801-25000] [25001-25200] [25201-25400] [25401-25600] [25601-25800] [25801-26000] [26001-26200] [26201-26400] [26401-26600] [26601-26800] [26801-27000] [27001-27200] [27201-27400] [27401-27600] [27601-27800] [27801-28000] [28001-28200] [28201-28400] [28401-28600] [28601-28800] [28801-29000] [29001-29200] [29201-29400] [29401-29600] [29601-29800] [29801-30000] [30001-30200] [30201-30400] [30401-30600] [30601-30800] [30801-31000] [31001-31200] [31201-31400] [31401-31600] [31601-31800] [31801-32000] [32001-32200] [32201-32400] [32401-32600] [32601-32800] [32801-33000] [33001-33200] [33201-33400] [33401-33600] [33601-33800] [33801-34000] [34001-34200] [34201-34400] [34401-34600] [34601-34800] [34801-35000] [35001-35200] [35201-35400] [35401-35600] [35601-35800] [35801-36000] [36001-36200] [36201-36400] [36401-36600] [36601-36800] [36801-37000] [37001-37200] [37201-37400] [37401-37600] [37601-37800] [37801-38000] [38001-38200] [38201-38400] [38401-38600] [38601-38800] [38801-39000] [39001-39200] [39201-39400] [39401-39600] [39601-39800] [39801-40000] [40001-40200] [40201-40400] [40401-40600] [40601-40800] [40801-41000] [41001-41200] [41201-41400] [41401-41600] [41601-41800] [41801-42000] [42001-42200] [42201-42400] [42401-42600] [42601-42800] [42801-43000] [43001-43200] [43201-43400] [43401-43600] [43601-43800] [43801-44000] [44001-44200] [44201-44400] [44401-44600] [44601-44800] [44801-45000] [45001-45200] [45201-45400] [45401-45600] [45601-45800] [45801-46000] [46001-46200] [46201-46400] [46401-46600] [46601-46800] [46801-47000] [47001-47200] [47201-47400] [47401-47600] [47601-47800] [47801-48000] [48001-48200] [48201-48400] [48401-48600] [48601-48800] [48801-49000] [49001-49200] [49201-49400] [49401-49600] [49601-49800] [49801-50000] [50001-50200] [50201-50388]